Time;durP1;ratioP1;P1;durP2;ratioP2;P2;SDS_P1;SDS_P2;PMS_P1;PMS_P2;Temp;Humidity;BMP_temperature;BMP_pressure;BME280_temperature;BME280_humidity;BME280_pressure;Samples;Min_cycle;Max_cycle;Signal;HPM_P1;HPM_P2
2023/09/22 00:01:23;;;;;;;0.75;0.43;;;14.50;99.90;;;;;;8272449;28;20451;-84
2023/09/22 00:05:24;;;;;;;1.50;0.63;;;14.60;99.90;;;;;;8274905;28;20038;-84
2023/09/22 00:09:24;;;;;;;1.33;0.60;;;14.60;99.90;;;;;;8256415;28;20030;-84
2023/09/22 00:13:25;;;;;;;0.85;0.55;;;14.50;99.90;;;;;;8281402;28;20026;-85
2023/09/22 00:17:27;;;;;;;1.02;0.47;;;14.50;99.90;;;;;;8286453;28;20065;-85
2023/09/22 00:21:28;;;;;;;2.00;0.50;;;14.40;99.90;;;;;;8294783;28;20034;-84
2023/09/22 00:25:28;;;;;;;0.82;0.55;;;14.40;99.90;;;;;;8303977;28;20053;-85
2023/09/22 00:29:29;;;;;;;0.63;0.52;;;14.30;99.90;;;;;;8275197;28;20513;-85
2023/09/22 00:33:29;;;;;;;1.45;0.70;;;14.10;99.90;;;;;;8267504;28;20053;-86
2023/09/22 00:37:30;;;;;;;0.60;0.47;;;14.10;99.90;;;;;;8292145;28;20030;-84
2023/09/22 00:41:30;;;;;;;0.73;0.60;;;14.10;99.90;;;;;;8291677;28;20524;-85
2023/09/22 00:45:31;;;;;;;0.50;0.50;;;14.00;99.90;;;;;;8291450;28;20030;-84
2023/09/22 00:49:34;;;;;;;1.10;0.50;;;14.10;99.90;;;;;;8273236;28;20026;-85
2023/09/22 00:53:36;;;;;;;1.65;0.50;;;14.00;99.90;;;;;;8275390;28;20402;-85
2023/09/22 00:57:38;;;;;;;1.70;0.60;;;14.00;99.90;;;;;;8281494;28;20030;-85
2023/09/22 01:01:39;;;;;;;1.92;0.50;;;14.00;99.90;;;;;;8291556;28;20034;-85
2023/09/22 01:05:39;;;;;;;1.00;0.65;;;14.00;99.90;;;;;;8275917;28;20499;-84
2023/09/22 01:09:41;;;;;;;2.47;0.70;;;14.00;99.90;;;;;;8275235;28;20129;-85
2023/09/22 01:13:42;;;;;;;1.23;0.77;;;13.90;99.90;;;;;;8276758;28;20446;-87
2023/09/22 01:17:43;;;;;;;1.40;0.70;;;13.90;99.90;;;;;;8291555;28;20033;-88
2023/09/22 01:21:44;;;;;;;3.38;0.80;;;13.80;99.90;;;;;;8298993;28;20036;-85
2023/09/22 01:25:45;;;;;;;0.80;0.40;;;13.70;99.90;;;;;;8292376;28;20023;-84
2023/09/22 01:29:45;;;;;;;0.60;0.47;;;13.60;99.90;;;;;;8299180;28;20026;-84
2023/09/22 01:33:46;;;;;;;0.73;0.63;;;13.50;99.90;;;;;;8295122;28;20026;-84
2023/09/22 01:37:55;;;;;;;1.30;0.70;;;13.50;99.90;;;;;;8287332;28;20045;-85
2023/09/22 01:41:55;;;;;;;1.08;0.70;;;13.40;99.90;;;;;;8270797;28;20030;-85
2023/09/22 01:45:56;;;;;;;0.77;0.63;;;13.30;99.90;;;;;;8293004;28;20458;-84
2023/09/22 01:49:56;;;;;;;1.10;0.70;;;13.30;99.90;;;;;;8301486;28;20029;-84
2023/09/22 01:53:57;;;;;;;1.40;0.75;;;13.20;99.90;;;;;;8289918;28;20469;-84
2023/09/22 01:57:58;;;;;;;4.00;1.00;;;13.40;99.90;;;;;;8292806;28;20079;-84
2023/09/22 02:01:58;;;;;;;2.58;1.00;;;13.40;99.90;;;;;;8288820;28;20021;-84
2023/09/22 02:05:59;;;;;;;1.92;1.25;;;13.30;99.90;;;;;;8278426;28;20018;-83
2023/09/22 02:10:00;;;;;;;4.35;1.20;;;13.30;99.90;;;;;;8281387;28;20157;-84
2023/09/22 02:14:01;;;;;;;2.55;1.60;;;13.20;99.90;;;;;;8271846;28;20022;-84
2023/09/22 02:18:01;;;;;;;1.42;1.15;;;13.20;99.90;;;;;;8292154;28;20418;-84
2023/09/22 02:22:02;;;;;;;1.88;0.88;;;13.40;99.90;;;;;;8294896;28;20030;-84
2023/09/22 02:26:06;;;;;;;1.60;0.90;;;13.20;99.90;;;;;;8295982;28;20072;-84
2023/09/22 02:30:08;;;;;;;1.48;1.20;;;13.20;99.90;;;;;;8287430;28;20117;-84
2023/09/22 02:34:08;;;;;;;3.17;1.00;;;13.20;99.90;;;;;;8295357;28;20038;-84
2023/09/22 02:38:09;;;;;;;3.45;0.95;;;13.00;99.90;;;;;;8286068;28;20053;-84
2023/09/22 02:42:09;;;;;;;1.80;1.02;;;13.00;99.90;;;;;;8301718;28;20013;-84
2023/09/22 02:46:10;;;;;;;1.77;0.73;;;12.90;99.90;;;;;;8294123;28;20026;-84
2023/09/22 02:50:17;;;;;;;1.52;1.02;;;12.90;99.90;;;;;;8279718;28;20028;-84
2023/09/22 02:54:17;;;;;;;5.15;0.95;;;12.90;99.90;;;;;;8293993;28;20030;-84
2023/09/22 02:58:18;;;;;;;1.90;1.17;;;12.90;99.90;;;;;;8299915;28;20037;-84
2023/09/22 03:02:18;;;;;;;1.77;1.20;;;13.10;99.90;;;;;;8294621;28;20030;-84
2023/09/22 03:06:19;;;;;;;2.13;1.23;;;13.20;99.90;;;;;;8283330;28;20029;-84
2023/09/22 03:10:20;;;;;;;1.77;1.10;;;13.20;99.90;;;;;;8289632;28;20026;-84
2023/09/22 03:14:23;;;;;;;1.90;1.10;;;13.30;99.90;;;;;;8278899;28;20031;-82
2023/09/22 03:18:24;;;;;;;1.73;0.80;;;13.30;99.90;;;;;;8295639;28;20104;-84
2023/09/22 03:22:25;;;;;;;2.38;0.73;;;13.20;99.90;;;;;;8298927;28;20018;-84
2023/09/22 03:26:26;;;;;;;4.00;0.95;;;13.20;99.90;;;;;;8295258;28;20034;-84
2023/09/22 03:30:27;;;;;;;2.42;1.25;;;13.10;99.90;;;;;;8300441;28;20075;-84
2023/09/22 03:34:27;;;;;;;2.40;0.90;;;13.00;99.90;;;;;;8295138;28;20042;-84
2023/09/22 03:38:28;;;;;;;6.88;1.08;;;13.00;99.90;;;;;;8288589;28;20122;-84
2023/09/22 03:42:29;;;;;;;10.57;1.20;;;13.00;99.90;;;;;;8280164;28;20033;-83
2023/09/22 03:46:30;;;;;;;3.83;1.00;;;12.90;99.90;;;;;;8288211;28;20065;-84
2023/09/22 03:50:30;;;;;;;2.03;1.20;;;12.90;99.90;;;;;;8288709;28;20032;-83
2023/09/22 03:54:31;;;;;;;2.17;1.10;;;13.00;99.90;;;;;;8296898;28;20026;-84
2023/09/22 03:58:31;;;;;;;2.88;1.00;;;12.80;99.90;;;;;;8301499;28;20076;-84
2023/09/22 04:02:32;;;;;;;1.92;0.80;;;12.80;99.90;;;;;;8290761;28;20035;-84
2023/09/22 04:06:32;;;;;;;6.13;1.02;;;12.70;99.90;;;;;;8278557;28;20026;-84
2023/09/22 04:10:33;;;;;;;2.08;0.90;;;12.60;99.90;;;;;;8294005;28;20026;-85
2023/09/22 04:14:34;;;;;;;2.10;0.98;;;12.60;99.90;;;;;;8274114;28;20037;-85
2023/09/22 04:18:35;;;;;;;4.57;1.20;;;12.70;99.90;;;;;;8273706;28;20518;-85
2023/09/22 04:22:35;;;;;;;1.70;1.08;;;12.60;99.90;;;;;;8260221;28;20030;-86
2023/09/22 04:26:42;;;;;;;3.65;0.98;;;12.60;99.90;;;;;;8293125;28;20052;-85
2023/09/22 04:30:43;;;;;;;2.08;1.10;;;12.50;99.90;;;;;;8284939;28;20500;-86
2023/09/22 04:34:43;;;;;;;2.17;1.05;;;12.60;99.90;;;;;;8269933;28;20034;-86
2023/09/22 04:38:45;;;;;;;3.45;1.17;;;12.70;99.90;;;;;;8278663;28;20402;-86
2023/09/22 04:42:45;;;;;;;1.58;1.00;;;12.80;99.90;;;;;;8264343;28;20019;-85
2023/09/22 04:46:46;;;;;;;6.43;1.30;;;12.70;99.90;;;;;;8268001;28;20030;-84
2023/09/22 04:50:55;;;;;;;1.50;1.08;;;12.80;99.90;;;;;;8286170;28;20034;-85
2023/09/22 04:54:56;;;;;;;2.70;1.07;;;12.90;99.90;;;;;;8286222;28;20379;-85
2023/09/22 04:58:57;;;;;;;2.85;1.40;;;12.90;99.90;;;;;;8283220;28;20895;-85
2023/09/22 05:02:58;;;;;;;3.50;1.10;;;13.00;99.90;;;;;;8256894;28;20022;-84
2023/09/22 05:06:59;;;;;;;3.25;1.10;;;13.00;99.90;;;;;;8282503;28;20023;-84
2023/09/22 05:11:05;;;;;;;1.75;0.90;;;13.20;99.90;;;;;;8295585;28;20022;-84
2023/09/22 05:15:06;;;;;;;1.40;0.93;;;13.10;99.90;;;;;;8283513;28;20022;-84
2023/09/22 05:19:07;;;;;;;5.07;0.98;;;12.90;99.90;;;;;;8273525;28;20100;-84
2023/09/22 05:23:09;;;;;;;1.05;0.95;;;12.90;99.90;;;;;;8287570;28;20033;-84
2023/09/22 05:27:10;;;;;;;1.40;0.90;;;13.00;99.90;;;;;;8289831;28;20026;-84
2023/09/22 05:31:10;;;;;;;1.52;0.93;;;12.80;99.90;;;;;;8289594;28;20020;-84
2023/09/22 05:35:11;;;;;;;1.92;1.05;;;12.70;99.90;;;;;;8294445;28;20513;-84
2023/09/22 05:39:11;;;;;;;1.55;1.05;;;12.80;99.90;;;;;;8281554;28;20564;-84
2023/09/22 05:43:14;;;;;;;3.28;1.00;;;12.80;99.90;;;;;;8284930;28;20025;-85
2023/09/22 05:47:15;;;;;;;1.52;1.05;;;12.90;99.90;;;;;;8284586;28;20018;-85
2023/09/22 05:51:15;;;;;;;3.78;1.10;;;13.10;99.90;;;;;;8279508;28;20110;-85
2023/09/22 05:55:16;;;;;;;2.78;1.45;;;12.90;99.90;;;;;;8284318;28;20033;-85
2023/09/22 05:59:17;;;;;;;1.85;1.25;;;12.80;99.90;;;;;;8282211;28;20033;-84
2023/09/22 06:03:19;;;;;;;3.13;1.20;;;12.80;99.90;;;;;;8275220;28;20482;-84
2023/09/22 06:07:20;;;;;;;1.17;0.98;;;13.00;99.90;;;;;;8289717;28;20026;-84
2023/09/22 06:11:20;;;;;;;2.83;1.50;;;13.10;99.90;;;;;;8270471;28;20121;-85
2023/09/22 06:15:21;;;;;;;1.55;0.90;;;13.00;99.90;;;;;;8270819;28;20026;-84
2023/09/22 06:19:22;;;;;;;1.63;1.20;;;13.00;99.90;;;;;;8284757;28;20030;-85
2023/09/22 06:23:23;;;;;;;2.28;1.45;;;12.90;99.90;;;;;;8280277;28;20034;-84
2023/09/22 06:27:24;;;;;;;3.22;1.27;;;12.90;99.90;;;;;;8281110;28;20041;-84
2023/09/22 06:31:24;;;;;;;4.70;1.60;;;12.90;99.90;;;;;;8275947;28;20182;-84
2023/09/22 06:35:25;;;;;;;3.92;2.20;;;12.80;99.90;;;;;;8266242;28;20569;-84
2023/09/22 06:39:25;;;;;;;5.82;1.92;;;12.80;99.90;;;;;;8269674;28;20048;-83
2023/09/22 06:43:27;;;;;;;2.58;1.77;;;12.80;99.90;;;;;;8267641;28;20034;-83
2023/09/22 06:47:28;;;;;;;4.15;2.10;;;12.80;99.90;;;;;;8284247;28;20033;-83
2023/09/22 06:51:30;;;;;;;3.35;1.92;;;12.80;99.90;;;;;;8278975;28;20753;-83
2023/09/22 06:55:30;;;;;;;3.15;2.25;;;13.10;99.90;;;;;;8281227;28;20387;-83
2023/09/22 06:59:32;;;;;;;3.78;2.00;;;13.00;99.90;;;;;;8285190;28;20065;-84
2023/09/22 07:03:32;;;;;;;4.78;1.80;;;13.10;99.90;;;;;;8254439;28;20414;-83
2023/09/22 07:07:32;;;;;;;5.90;1.70;;;13.20;99.90;;;;;;8295196;28;20026;-83
2023/09/22 07:11:39;;;;;;;4.43;1.40;;;13.50;99.90;;;;;;8279224;28;20507;-83
2023/09/22 07:15:40;;;;;;;2.60;1.63;;;13.40;99.90;;;;;;8262164;28;20053;-84
2023/09/22 07:19:41;;;;;;;4.82;1.70;;;13.30;99.90;;;;;;8287560;28;20046;-84
2023/09/22 07:23:44;;;;;;;5.80;2.00;;;13.10;99.90;;;;;;8302986;28;20084;-84
2023/09/22 07:27:45;;;;;;;3.67;2.40;;;13.20;99.90;;;;;;8295850;28;20511;-84
2023/09/22 07:31:45;;;;;;;8.75;2.35;;;13.30;99.90;;;;;;8288859;28;20030;-82
2023/09/22 07:35:48;;;;;;;4.95;2.03;;;13.30;99.90;;;;;;8292737;28;20178;-83
2023/09/22 07:39:49;;;;;;;2.78;1.95;;;13.50;99.90;;;;;;8279395;28;20026;-84
2023/09/22 07:43:52;;;;;;;3.33;1.85;;;13.50;99.90;;;;;;8274750;28;20030;-85
2023/09/22 07:47:52;;;;;;;4.82;3.13;;;13.50;99.90;;;;;;8290676;28;20069;-84
2023/09/22 07:51:53;;;;;;;1.85;0.70;;;13.50;99.90;;;;;;8298579;28;20037;-84
2023/09/22 07:55:59;;;;;;;2.65;0.50;;;13.70;99.90;;;;;;8289742;28;20023;-82
2023/09/22 07:59:59;;;;;;;2.80;0.90;;;13.70;99.90;;;;;;8278186;28;20037;-81
2023/09/22 08:04:00;;;;;;;3.28;0.73;;;13.50;99.90;;;;;;8264771;28;20018;-82
2023/09/22 08:08:01;;;;;;;2.25;0.75;;;13.20;99.90;;;;;;8292002;28;20022;-82
2023/09/22 08:12:02;;;;;;;2.67;0.88;;;13.10;99.90;;;;;;8287426;28;20022;-81
2023/09/22 08:16:07;;;;;;;1.90;1.15;;;13.10;99.90;;;;;;8293332;28;20033;-82
2023/09/22 08:20:12;;;;;;;1.90;1.20;;;13.00;99.90;;;;;;8277732;28;20106;-82
2023/09/22 08:24:15;;;;;;;5.15;1.20;;;13.10;99.90;;;;;;8283303;28;20610;-83
2023/09/22 08:28:15;;;;;;;1.98;0.90;;;13.00;99.90;;;;;;8283925;28;20026;-83
2023/09/22 08:32:17;;;;;;;1.95;0.80;;;12.90;99.90;;;;;;8275028;28;20406;-83
2023/09/22 08:36:17;;;;;;;1.98;0.63;;;12.80;99.90;;;;;;8281691;28;20125;-84
2023/09/22 08:40:18;;;;;;;2.10;0.90;;;12.80;99.90;;;;;;8279498;28;20038;-84
2023/09/22 08:44:19;;;;;;;1.95;1.30;;;12.80;99.90;;;;;;8272575;28;20028;-84
2023/09/22 08:48:20;;;;;;;3.22;1.10;;;12.80;99.90;;;;;;8284370;28;20056;-84
2023/09/22 08:52:22;;;;;;;1.75;1.00;;;13.00;99.90;;;;;;8294055;28;20030;-84
2023/09/22 08:56:23;;;;;;;1.02;0.88;;;13.10;99.90;;;;;;8282815;28;20042;-84
2023/09/22 09:00:27;;;;;;;1.73;0.90;;;13.10;99.90;;;;;;8268170;28;20101;-85
2023/09/22 09:04:39;;;;;;;1.00;0.70;;;12.90;99.90;;;;;;8269883;28;20037;-84
2023/09/22 09:08:40;;;;;;;1.65;0.73;;;13.10;99.90;;;;;;8283070;28;20121;-84
2023/09/22 09:12:44;;;;;;;0.90;0.70;;;13.10;99.90;;;;;;8282441;28;20049;-81
2023/09/22 09:16:45;;;;;;;1.92;0.63;;;13.10;99.90;;;;;;8275639;28;20054;-83
2023/09/22 09:21:16;;;;;;;1.73;0.70;;;13.10;99.90;;;;;;8290677;28;20037;-82
2023/09/22 09:25:16;;;;;;;0.60;0.50;;;12.90;99.90;;;;;;8264199;28;20045;-82
2023/09/22 09:29:28;;;;;;;1.88;0.40;;;12.80;99.90;;;;;;8281487;28;20040;-82
2023/09/22 09:33:34;;;;;;;0.93;0.60;;;12.80;99.90;;;;;;8256100;28;20538;-83
2023/09/22 09:37:35;;;;;;;2.13;0.60;;;12.70;99.90;;;;;;8268421;28;20022;-82
2023/09/22 09:41:37;;;;;;;0.65;0.50;;;12.60;99.90;;;;;;8278646;28;20072;-82
2023/09/22 09:45:43;;;;;;;0.90;0.60;;;12.70;99.90;;;;;;8270145;28;20105;-83
2023/09/22 09:49:48;;;;;;;1.50;0.57;;;12.60;99.90;;;;;;8291004;28;20026;-83
2023/09/22 09:53:52;;;;;;;1.63;0.50;;;12.60;99.90;;;;;;8275301;28;20077;-83
2023/09/22 09:57:56;;;;;;;1.83;0.35;;;12.70;99.90;;;;;;8278626;28;20103;-83
2023/09/22 10:01:56;;;;;;;1.20;0.60;;;12.60;99.90;;;;;;8271341;28;20160;-84
2023/09/22 10:05:58;;;;;;;1.02;0.50;;;12.50;99.90;;;;;;8280158;28;20030;-83
2023/09/22 10:09:58;;;;;;;2.45;0.70;;;12.60;99.90;;;;;;8288751;28;20037;-84
2023/09/22 10:13:59;;;;;;;2.85;1.33;;;12.70;99.90;;;;;;8280753;28;20033;-82
2023/09/22 10:17:59;;;;;;;2.03;0.60;;;12.60;99.90;;;;;;8292832;28;20026;-84
2023/09/22 10:22:11;;;;;;;1.42;0.80;;;12.60;99.90;;;;;;8294782;28;20152;-83
2023/09/22 10:26:16;;;;;;;1.85;0.60;;;12.50;99.90;;;;;;8278331;28;20057;-84
2023/09/22 10:30:17;;;;;;;1.70;0.90;;;12.60;99.90;;;;;;8294127;28;20033;-83
2023/09/22 10:34:48;;;;;;;1.48;0.90;;;12.60;99.90;;;;;;8290615;28;20092;-84
2023/09/22 10:38:52;;;;;;;1.58;0.75;;;12.40;99.90;;;;;;8289150;28;20084;-83
2023/09/22 10:42:52;;;;;;;0.40;0.38;;;12.40;99.90;;;;;;8286128;28;20414;-84
2023/09/22 10:46:57;;;;;;;0.63;0.40;;;12.20;99.90;;;;;;8266202;28;20109;-84
2023/09/22 10:50:58;;;;;;;1.13;0.60;;;12.10;99.90;;;;;;8270486;28;20018;-84
2023/09/22 10:54:59;;;;;;;3.88;0.70;;;12.10;99.90;;;;;;8283282;28;20022;-85
2023/09/22 10:58:59;;;;;;;1.70;0.60;;;12.10;99.90;;;;;;8311256;22;20075;-82
2023/09/22 11:03:05;;;;;;;1.00;0.50;;;12.30;99.90;;;;;;8325004;28;20021;-81
2023/09/22 11:07:05;;;;;;;5.47;1.00;;;12.20;99.90;;;;;;8326324;28;20029;-85
2023/09/22 11:11:06;;;;;;;1.70;1.10;;;12.60;99.90;;;;;;8322066;28;20075;-81
2023/09/22 11:15:07;;;;;;;2.33;0.90;;;12.80;99.90;;;;;;8320298;28;20059;-82
2023/09/22 11:19:08;;;;;;;1.35;0.75;;;13.10;99.90;;;;;;8336366;28;20032;-81
2023/09/22 11:23:09;;;;;;;1.38;0.70;;;13.40;99.90;;;;;;8317619;28;20022;-84
2023/09/22 11:27:10;;;;;;;1.05;0.60;;;13.70;99.90;;;;;;8320321;28;20461;-81
2023/09/22 11:31:19;;;;;;;1.88;0.80;;;13.70;99.90;;;;;;8317290;28;20029;-82
2023/09/22 11:35:37;;;;;;;0.95;0.60;;;13.80;99.90;;;;;;8319137;28;20022;-82
2023/09/22 11:39:38;;;;;;;1.67;0.82;;;13.90;99.90;;;;;;8315042;28;20022;-81
2023/09/22 11:43:54;;;;;;;0.70;0.57;;;13.80;99.90;;;;;;8327065;28;20046;-81
2023/09/22 11:48:05;;;;;;;1.50;0.88;;;13.60;99.90;;;;;;8326385;28;20058;-82
2023/09/22 11:52:06;;;;;;;1.50;0.60;;;13.80;99.90;;;;;;8314996;28;20025;-81
2023/09/22 11:56:06;;;;;;;0.30;0.30;;;13.60;99.90;;;;;;8316064;28;20029;-81
2023/09/22 12:00:09;;;;;;;0.65;0.40;;;13.50;99.90;;;;;;8313943;28;20033;-80
2023/09/22 12:04:09;;;;;;;2.30;1.40;;;13.50;99.90;;;;;;8329179;28;20265;-81
2023/09/22 12:08:10;;;;;;;0.55;0.40;;;13.20;99.90;;;;;;8327867;28;20030;-81
2023/09/22 12:12:12;;;;;;;0.73;0.50;;;13.10;99.90;;;;;;8338084;28;20047;-79
2023/09/22 12:16:13;;;;;;;0.30;0.30;;;13.30;99.90;;;;;;8314374;28;20401;-80
2023/09/22 12:20:14;;;;;;;0.95;0.40;;;13.20;99.90;;;;;;8305979;28;20038;-79
2023/09/22 12:24:15;;;;;;;0.80;0.50;;;13.10;99.90;;;;;;8323170;28;20036;-79
2023/09/22 12:28:15;;;;;;;0.80;0.60;;;13.30;99.90;;;;;;8309909;28;20037;-79
2023/09/22 12:32:16;;;;;;;1.48;0.90;;;13.50;99.90;;;;;;8319252;28;20045;-78
2023/09/22 12:36:17;;;;;;;1.35;0.80;;;13.30;99.90;;;;;;8337348;28;20026;-78
2023/09/22 12:40:18;;;;;;;1.38;0.50;;;13.50;99.90;;;;;;8315919;28;20030;-79
2023/09/22 12:44:19;;;;;;;2.13;0.73;;;13.50;99.90;;;;;;8306797;28;20025;-79
2023/09/22 12:48:19;;;;;;;4.18;1.00;;;13.40;99.90;;;;;;8324044;28;20052;-79
2023/09/22 12:52:20;;;;;;;1.48;0.70;;;13.50;99.90;;;;;;8309000;28;20032;-79
2023/09/22 12:56:20;;;;;;;2.50;0.30;;;13.70;99.90;;;;;;8316344;28;20043;-80
2023/09/22 13:00:21;;;;;;;0.20;0.20;;;13.90;99.90;;;;;;8311032;28;20553;-78
2023/09/22 13:04:25;;;;;;;0.63;0.50;;;14.20;99.90;;;;;;8320341;28;20022;-79
2023/09/22 13:08:26;;;;;;;1.05;0.40;;;14.50;99.90;;;;;;8313730;28;20057;-79
2023/09/22 13:12:26;;;;;;;0.88;0.45;;;14.80;99.90;;;;;;8323214;28;20044;-80
2023/09/22 13:16:27;;;;;;;1.60;0.57;;;14.90;99.90;;;;;;8317434;28;20025;-80
2023/09/22 13:20:32;;;;;;;1.38;0.70;;;14.80;99.90;;;;;;8312674;28;20060;-80
2023/09/22 13:24:33;;;;;;;0.77;0.50;;;14.70;99.90;;;;;;8307539;28;20513;-79
2023/09/22 13:28:33;;;;;;;0.88;0.50;;;14.80;99.90;;;;;;8328105;28;20045;-79
2023/09/22 13:32:34;;;;;;;1.38;0.70;;;14.90;99.90;;;;;;8331209;28;20075;-80
2023/09/22 13:36:34;;;;;;;1.02;0.80;;;14.90;99.90;;;;;;8327098;28;20018;-80
2023/09/22 13:40:35;;;;;;;0.73;0.50;;;15.20;99.90;;;;;;8327282;28;20100;-80
2023/09/22 13:44:36;;;;;;;0.88;0.55;;;15.20;99.90;;;;;;8328642;28;20270;-80
2023/09/22 13:48:37;;;;;;;0.60;0.40;;;15.00;99.90;;;;;;8324228;28;20056;-81
2023/09/22 13:52:38;;;;;;;0.60;0.50;;;15.00;99.90;;;;;;8331677;28;20171;-81
2023/09/22 13:56:41;;;;;;;1.08;0.77;;;14.60;99.90;;;;;;8302840;28;20060;-81
2023/09/22 14:00:41;;;;;;;0.88;0.60;;;14.20;99.90;;;;;;8330443;28;20507;-81
2023/09/22 14:04:42;;;;;;;2.97;1.23;;;14.00;99.90;;;;;;8335364;28;20025;-81
2023/09/22 14:08:45;;;;;;;7.05;4.53;;;14.20;99.90;;;;;;8336221;28;20024;-81
2023/09/22 14:12:46;;;;;;;2.70;1.00;;;14.20;99.90;;;;;;8316129;28;20029;-81
2023/09/22 14:16:51;;;;;;;2.92;1.00;;;14.10;99.90;;;;;;8319152;28;20485;-80
2023/09/22 14:20:51;;;;;;;0.57;0.50;;;14.20;99.90;;;;;;8330691;28;20017;-82
2023/09/22 14:24:52;;;;;;;1.08;0.50;;;14.00;99.90;;;;;;8314753;28;20030;-81
2023/09/22 14:28:53;;;;;;;2.80;1.05;;;13.90;99.90;;;;;;8317896;28;20079;-81
2023/09/22 14:32:54;;;;;;;1.02;0.60;;;13.70;99.90;;;;;;8308896;28;20120;-81
2023/09/22 14:36:54;;;;;;;0.85;0.55;;;13.90;99.90;;;;;;8306515;28;20021;-81
2023/09/22 14:40:55;;;;;;;1.60;0.40;;;13.80;99.90;;;;;;8305728;28;20026;-81
2023/09/22 14:44:55;;;;;;;0.50;0.40;;;13.80;99.90;;;;;;8321476;28;20068;-81
2023/09/22 14:48:56;;;;;;;1.08;0.73;;;13.90;99.90;;;;;;8305134;28;20400;-80
2023/09/22 14:52:56;;;;;;;1.08;0.70;;;13.90;99.90;;;;;;8331742;28;20067;-80
2023/09/22 14:56:57;;;;;;;1.02;0.60;;;14.10;99.90;;;;;;8314515;28;20025;-81
2023/09/22 15:00:58;;;;;;;0.68;0.50;;;14.20;99.90;;;;;;8307890;28;20021;-81
2023/09/22 15:04:59;;;;;;;0.60;0.30;;;14.60;99.90;;;;;;8300753;28;20022;-80
2023/09/22 15:08:59;;;;;;;0.95;0.50;;;15.30;99.90;;;;;;8312901;28;20056;-81
2023/09/22 15:13:01;;;;;;;0.35;0.30;;;15.70;99.90;;;;;;8314374;28;20029;-81
2023/09/22 15:17:07;;;;;;;0.85;0.60;;;15.70;99.90;;;;;;8317296;28;20026;-81
2023/09/22 15:21:11;;;;;;;0.88;0.60;;;15.70;99.90;;;;;;8326874;28;20037;-80
2023/09/22 15:25:12;;;;;;;0.40;0.40;;;15.90;99.90;;;;;;8318984;28;20033;-80
2023/09/22 15:29:13;;;;;;;0.95;0.30;;;15.80;99.90;;;;;;8311008;28;20380;-80
2023/09/22 15:33:14;;;;;;;1.25;0.40;;;15.50;99.90;;;;;;8297674;28;20036;-81
2023/09/22 15:37:14;;;;;;;0.55;0.30;;;15.40;99.90;;;;;;8336098;28;20538;-80
2023/09/22 15:41:15;;;;;;;1.27;0.35;;;15.50;99.90;;;;;;8305630;28;20633;-80
2023/09/22 15:45:16;;;;;;;4.97;0.55;;;15.70;99.90;;;;;;8324819;28;20025;-80
2023/09/22 15:49:16;;;;;;;1.10;0.70;;;15.70;99.90;;;;;;8316530;28;20025;-80
2023/09/22 15:53:17;;;;;;;1.05;0.47;;;15.30;99.90;;;;;;8311106;28;20052;-80
2023/09/22 15:57:17;;;;;;;0.82;0.40;;;14.90;99.90;;;;;;8313793;28;20095;-80
2023/09/22 16:01:18;;;;;;;0.82;0.40;;;14.70;99.90;;;;;;8328140;28;20034;-80
2023/09/22 16:05:18;;;;;;;0.70;0.50;;;14.70;99.90;;;;;;8331180;28;20018;-82
2023/09/22 16:09:20;;;;;;;0.98;0.63;;;14.90;99.90;;;;;;8330080;28;20037;-80
2023/09/22 16:13:21;;;;;;;0.95;0.50;;;14.80;99.90;;;;;;8340617;28;20032;-80
2023/09/22 16:17:22;;;;;;;2.17;0.50;;;14.80;99.90;;;;;;8316075;28;20029;-78
2023/09/22 16:21:23;;;;;;;1.73;0.70;;;14.70;99.90;;;;;;8323955;28;20597;-80
2023/09/22 16:25:23;;;;;;;1.58;0.50;;;14.50;99.90;;;;;;8322396;28;20049;-80
2023/09/22 16:29:24;;;;;;;1.52;0.60;;;14.40;99.90;;;;;;8332665;28;20037;-79
2023/09/22 16:33:27;;;;;;;0.63;0.50;;;14.30;99.90;;;;;;8338033;28;20037;-79
2023/09/22 16:37:28;;;;;;;0.52;0.40;;;14.30;99.90;;;;;;8315248;28;20029;-80
2023/09/22 16:41:28;;;;;;;2.20;0.65;;;14.30;99.90;;;;;;8318765;28;20027;-80
2023/09/22 16:45:29;;;;;;;3.50;0.60;;;14.20;99.90;;;;;;8318531;28;20489;-80
2023/09/22 16:49:30;;;;;;;0.98;0.60;;;14.00;99.90;;;;;;8314841;28;20021;-80
2023/09/22 16:53:34;;;;;;;4.35;1.58;;;14.00;99.90;;;;;;8311616;28;20059;-80
2023/09/22 16:57:34;;;;;;;1.45;0.57;;;13.90;99.90;;;;;;8324002;28;20018;-80
2023/09/22 17:01:36;;;;;;;0.95;0.60;;;13.80;99.90;;;;;;8321645;28;20025;-80
2023/09/22 17:05:37;;;;;;;2.13;0.80;;;13.70;99.90;;;;;;8328498;28;20384;-81
2023/09/22 17:09:37;;;;;;;0.90;0.52;;;13.70;99.90;;;;;;8328945;28;20109;-80
2023/09/22 17:13:39;;;;;;;0.95;0.50;;;13.40;99.90;;;;;;8304716;28;20103;-80
2023/09/22 17:17:39;;;;;;;1.52;0.43;;;12.90;99.90;;;;;;8314051;28;20092;-81
2023/09/22 17:21:40;;;;;;;0.77;0.50;;;12.60;99.90;;;;;;8333728;28;20719;-81
2023/09/22 17:25:48;;;;;;;1.10;1.00;;;12.40;99.90;;;;;;8327498;28;20021;-80
2023/09/22 17:29:51;;;;;;;1.80;1.30;;;12.50;99.90;;;;;;8336997;28;20560;-80
2023/09/22 17:33:55;;;;;;;2.88;1.20;;;12.30;99.90;;;;;;8316520;28;20637;-80
2023/09/22 17:37:57;;;;;;;2.67;1.40;;;12.10;99.90;;;;;;8309848;28;20026;-80
2023/09/22 17:41:57;;;;;;;3.30;1.38;;;11.80;99.90;;;;;;8306103;28;20052;-80
2023/09/22 17:46:08;;;;;;;1.30;0.73;;;11.80;99.90;;;;;;8312067;28;20443;-80
2023/09/22 17:50:10;;;;;;;0.82;0.52;;;11.80;99.90;;;;;;8314283;28;20017;-80
2023/09/22 17:54:12;;;;;;;1.77;0.88;;;12.00;99.90;;;;;;8317030;28;20061;-80
2023/09/22 17:58:12;;;;;;;1.65;1.10;;;12.20;99.90;;;;;;8307756;28;20445;-79
2023/09/22 18:02:13;;;;;;;2.83;2.22;;;12.20;99.90;;;;;;8302735;28;20037;-80
2023/09/22 18:06:13;;;;;;;2.20;1.23;;;12.10;99.90;;;;;;8325569;28;20037;-80
2023/09/22 18:10:14;;;;;;;2.60;0.85;;;12.20;99.90;;;;;;8316289;28;20034;-81
2023/09/22 18:14:15;;;;;;;1.75;0.75;;;12.00;99.90;;;;;;8313498;28;20576;-81
2023/09/22 18:18:18;;;;;;;1.17;0.50;;;12.00;99.90;;;;;;8307771;28;20044;-81
2023/09/22 18:22:18;;;;;;;1.10;0.60;;;11.80;99.90;;;;;;8306782;28;20025;-80
2023/09/22 18:26:19;;;;;;;1.15;0.68;;;11.60;99.90;;;;;;8319267;28;20032;-81
2023/09/22 18:30:20;;;;;;;1.55;0.85;;;11.50;99.90;;;;;;8320605;28;20170;-80
2023/09/22 18:34:20;;;;;;;1.23;0.80;;;11.40;99.90;;;;;;8340530;28;20026;-81
2023/09/22 18:38:21;;;;;;;1.25;0.85;;;11.20;99.90;;;;;;8314061;28;20033;-79
2023/09/22 18:42:21;;;;;;;2.10;0.82;;;11.10;99.90;;;;;;8305558;28;20022;-80
2023/09/22 18:46:22;;;;;;;1.90;0.82;;;10.80;99.90;;;;;;8304464;28;20597;-79
2023/09/22 18:50:23;;;;;;;8.27;5.05;;;10.60;99.90;;;;;;8322697;28;20537;-80
2023/09/22 18:54:25;;;;;;;12.32;7.15;;;10.50;99.90;;;;;;8302952;28;20026;-81
2023/09/22 18:58:26;;;;;;;17.75;7.32;;;10.40;99.90;;;;;;8304701;28;20028;-80
2023/09/22 19:02:27;;;;;;;8.30;4.00;;;10.30;99.90;;;;;;8313661;28;20478;-81
2023/09/22 19:06:32;;;;;;;4.85;3.10;;;10.40;99.90;;;;;;8308465;28;20072;-81
2023/09/22 19:10:37;;;;;;;5.43;3.10;;;10.70;99.90;;;;;;8329417;28;20024;-80
2023/09/22 19:14:38;;;;;;;11.88;5.20;;;10.90;99.90;;;;;;8321447;28;20509;-80
2023/09/22 19:18:43;;;;;;;7.28;4.00;;;10.80;99.90;;;;;;8331046;28;20116;-80
2023/09/22 19:22:43;;;;;;;7.07;3.88;;;10.90;99.90;;;;;;8325739;28;20025;-80
2023/09/22 19:26:51;;;;;;;4.60;3.25;;;11.00;99.90;;;;;;8331700;28;20032;-80
2023/09/22 19:30:55;;;;;;;4.55;3.33;;;11.10;99.90;;;;;;8319297;28;20025;-80
2023/09/22 19:35:00;;;;;;;3.92;3.53;;;11.10;99.90;;;;;;8323411;28;20045;-80
2023/09/22 19:39:00;;;;;;;3.97;2.22;;;11.20;99.90;;;;;;8331705;28;20033;-80
2023/09/22 19:43:01;;;;;;;4.07;2.50;;;11.60;99.90;;;;;;8329042;28;20041;-80
2023/09/22 19:47:01;;;;;;;2.88;1.67;;;11.80;99.90;;;;;;8324494;28;20014;-79
2023/09/22 19:51:02;;;;;;;1.67;1.30;;;12.30;99.90;;;;;;8313467;28;20056;-79
2023/09/22 19:55:04;;;;;;;2.53;1.20;;;12.10;99.90;;;;;;8336717;28;20416;-79
2023/09/22 19:59:05;;;;;;;2.15;1.05;;;11.80;99.90;;;;;;8321073;28;20021;-80
2023/09/22 20:03:05;;;;;;;1.42;1.10;;;11.70;99.90;;;;;;8319863;28;20021;-80
2023/09/22 20:07:06;;;;;;;1.52;1.10;;;11.90;99.90;;;;;;8320152;28;20239;-79
2023/09/22 20:11:08;;;;;;;3.10;1.33;;;11.80;99.90;;;;;;8313036;28;20477;-80
2023/09/22 20:15:13;;;;;;;3.45;1.10;;;11.80;99.90;;;;;;8312944;28;20021;-80
2023/09/22 20:19:13;;;;;;;1.80;1.33;;;11.50;99.90;;;;;;8308541;28;20076;-80
2023/09/22 20:23:14;;;;;;;4.32;1.02;;;11.30;99.90;;;;;;8320722;28;20511;-80
2023/09/22 20:27:14;;;;;;;1.10;0.70;;;11.20;99.90;;;;;;8327055;28;20026;-81
2023/09/22 20:31:15;;;;;;;2.65;0.90;;;11.30;99.90;;;;;;8312472;28;20099;-81
2023/09/22 20:35:16;;;;;;;3.13;0.80;;;11.30;99.90;;;;;;8314201;28;20033;-80
2023/09/22 20:39:16;;;;;;;1.23;0.60;;;11.40;99.90;;;;;;8328930;28;20022;-80
2023/09/22 20:43:20;;;;;;;1.13;0.55;;;11.30;99.90;;;;;;8325953;28;20036;-81
2023/09/22 20:47:20;;;;;;;1.63;0.73;;;11.30;99.90;;;;;;8312141;28;20047;-80
2023/09/22 20:51:23;;;;;;;2.88;0.70;;;11.20;99.90;;;;;;8309550;28;20029;-81
2023/09/22 20:55:23;;;;;;;3.60;0.70;;;11.20;99.90;;;;;;8317905;28;20083;-80